Kansas City, Missouri
Traffic Map
Current Weather Conditions
Kansas City, Missouri
Clear
Clear
22°
Feels Like: 22°
Wind Chill: 22° Ceiling: Unl
Heat Index: 22° Visibility: 10mi
Dew Point: Wind: 6mph
Humidity: 34% Direction: ° ()
Pressure: 30.08in Gusts: 0mph
Raw Report DataKMKC 051754Z VRB05KT 10SM CLR 22/05 A3008 RMK AO2 SLP185 T02170050 10217 20094 58001
Traffic Incident Summary
Active as of:
Severity:
Category:
InformationThere was an issue retrieving the traffic information for this location. Please try a different location or try again shortly.
Advertisements
Track Severe Weather on mobile